Time;durP1;ratioP1;P1;durP2;ratioP2;P2;SDS_P1;SDS_P2;PMS_P1;PMS_P2;Temp;Humidity;BMP_temperature;BMP_pressure;BME280_temperature;BME280_humidity;BME280_pressure;Samples;Min_cycle;Max_cycle;Signal;HPM_P1;HPM_P2
2021/11/26 00:04:24;;;;;;;8.27;3.70;;;;;4.80;100391.00;;;;10476862;27;20262;-82
2021/11/26 00:09:26;;;;;;;7.93;4.30;;;;;4.80;100386.00;;;;10489825;28;20204;-82
2021/11/26 00:14:31;;;;;;;9.63;4.63;;;;;4.80;100385.00;;;;10475047;28;20585;-82
2021/11/26 00:19:33;;;;;;;12.70;4.60;;;;;4.80;100373.00;;;;10498091;28;20270;-83
2021/11/26 00:24:35;;;;;;;9.97;5.30;;;;;4.80;100367.00;;;;10490152;28;20232;-84
2021/11/26 00:29:37;;;;;;;11.20;4.13;;;;;4.80;100355.00;;;;10467265;28;20200;-83
2021/11/26 00:34:39;;;;;;;16.60;4.10;;;;;4.70;100340.00;;;;10459839;28;20235;-83
2021/11/26 00:39:41;;;;;;;12.10;5.03;;;;;4.70;100339.00;;;;10494368;28;20213;-84
2021/11/26 00:44:43;;;;;;;10.93;4.27;;;;;4.70;100324.00;;;;10456400;28;20220;-83
2021/11/26 00:49:44;;;;;;;8.90;4.70;;;;;4.70;100309.00;;;;10479874;28;20197;-83
2021/11/26 00:54:47;;;;;;;12.10;3.93;;;;;4.70;100301.00;;;;10488856;28;20201;-83
2021/11/26 00:59:48;;;;;;;8.93;3.77;;;;;4.70;100301.00;;;;10486325;28;20668;-83
2021/11/26 01:04:50;;;;;;;9.73;3.97;;;;;4.70;100294.00;;;;10484745;28;20229;-83
2021/11/26 01:09:52;;;;;;;10.80;3.00;;;;;4.70;100277.00;;;;10535156;27;20287;-84
2021/11/26 01:14:54;;;;;;;9.90;3.57;;;;;4.70;100279.00;;;;10470658;28;20207;-84
2021/11/26 01:19:56;;;;;;;8.00;3.07;;;;;4.70;100273.00;;;;10517726;28;20250;-83
2021/11/26 01:24:58;;;;;;;9.53;3.67;;;;;4.70;100260.00;;;;10464532;28;20221;-83
2021/11/26 01:30:05;;;;;;;9.07;4.33;;;;;4.70;100251.00;;;;10479910;28;20201;-83
2021/11/26 01:35:08;;;;;;;9.07;4.10;;;;;4.70;100240.00;;;;10509602;28;20680;-83
2021/11/26 01:40:11;;;;;;;8.10;3.80;;;;;4.70;100222.00;;;;10480970;28;20266;-83
2021/11/26 01:45:14;;;;;;;10.83;4.10;;;;;4.70;100225.00;;;;10528574;28;20221;-83
2021/11/26 01:50:18;;;;;;;12.57;3.90;;;;;4.70;100218.00;;;;10476852;28;20212;-82
2021/11/26 01:55:20;;;;;;;10.67;3.60;;;;;4.70;100212.00;;;;10465434;28;20212;-82
2021/11/26 02:00:26;;;;;;;11.33;4.20;;;;;4.70;100212.00;;;;10477989;28;20260;-81
2021/11/26 02:05:29;;;;;;;13.33;3.90;;;;;4.70;100197.00;;;;10529135;27;20200;-83
2021/11/26 02:10:31;;;;;;;10.67;4.17;;;;;4.70;100184.00;;;;10510342;28;20205;-83
2021/11/26 02:15:40;;;;;;;11.70;4.43;;;;;4.70;100182.00;;;;10481285;28;20208;-83
2021/11/26 02:20:43;;;;;;;9.93;4.30;;;;;4.70;100167.00;;;;10474033;28;20311;-83
2021/11/26 02:25:45;;;;;;;17.20;4.80;;;;;4.70;100161.00;;;;10453088;28;20209;-83
2021/11/26 02:30:47;;;;;;;14.13;4.33;;;;;4.70;100150.00;;;;10482284;28;20856;-83
2021/11/26 02:35:52;;;;;;;16.00;4.40;;;;;4.70;100144.00;;;;10499111;28;20199;-83
2021/11/26 02:40:54;;;;;;;7.97;4.00;;;;;4.70;100142.00;;;;10486625;28;20227;-82
2021/11/26 02:45:56;;;;;;;11.30;3.80;;;;;4.80;100130.00;;;;10489754;28;20226;-83
2021/11/26 02:50:58;;;;;;;12.90;5.17;;;;;4.80;100115.00;;;;10490617;28;20280;-83
2021/11/26 02:56:00;;;;;;;11.33;5.63;;;;;4.80;100108.00;;;;10491778;28;20205;-82
2021/11/26 03:01:03;;;;;;;16.00;7.50;;;;;4.80;100101.00;;;;10488498;27;20215;-83
2021/11/26 03:06:06;;;;;;;14.23;8.30;;;;;4.80;100084.00;;;;10487850;28;20197;-83
2021/11/26 03:11:09;;;;;;;21.60;8.93;;;;;4.80;100077.00;;;;10523371;28;20680;-83
2021/11/26 03:16:11;;;;;;;24.27;8.60;;;;;4.80;100059.00;;;;10483987;27;20785;-83
2021/11/26 03:21:13;;;;;;;21.10;8.47;;;;;4.80;100036.00;;;;10474240;28;20221;-83
2021/11/26 03:26:15;;;;;;;13.97;8.13;;;;;4.70;100026.00;;;;10490196;28;20679;-83
2021/11/26 03:31:17;;;;;;;15.63;7.63;;;;;4.70;100028.00;;;;10500960;28;20221;-83
2021/11/26 03:36:19;;;;;;;19.90;7.80;;;;;4.70;100021.00;;;;10455165;28;20200;-83
2021/11/26 03:41:21;;;;;;;17.80;7.63;;;;;4.60;100007.00;;;;10475600;28;20214;-82
2021/11/26 03:46:23;;;;;;;17.30;7.37;;;;;4.60;100000.00;;;;10457970;28;20193;-82
2021/11/26 03:51:26;;;;;;;23.40;7.97;;;;;4.50;99984.00;;;;10485151;28;20606;-82
2021/11/26 03:56:28;;;;;;;17.83;7.30;;;;;4.50;99976.00;;;;10473025;28;20205;-82
2021/11/26 04:01:30;;;;;;;17.07;7.43;;;;;4.50;99962.00;;;;10488790;28;20983;-82
2021/11/26 04:06:32;;;;;;;12.93;7.37;;;;;4.50;99944.00;;;;10465547;28;20283;-82
2021/11/26 04:11:34;;;;;;;25.97;7.50;;;;;4.40;99946.00;;;;10489390;28;20572;-82
2021/11/26 04:16:36;;;;;;;17.80;7.43;;;;;4.40;99935.00;;;;10505407;27;20663;-82
2021/11/26 04:21:38;;;;;;;26.03;7.80;;;;;4.40;99915.00;;;;10479186;28;20217;-82
2021/11/26 04:26:40;;;;;;;20.50;8.20;;;;;4.40;99914.00;;;;10475190;28;20729;-82
2021/11/26 04:31:42;;;;;;;17.23;7.87;;;;;4.40;99910.00;;;;10445038;28;20222;-82
2021/11/26 04:36:44;;;;;;;24.37;8.03;;;;;4.40;99897.00;;;;10503954;28;20204;-82
2021/11/26 04:41:46;;;;;;;17.17;7.77;;;;;4.40;99888.00;;;;10481858;28;20706;-82
2021/11/26 04:46:48;;;;;;;21.67;7.50;;;;;4.30;99887.00;;;;10510660;28;20197;-82
2021/11/26 04:51:50;;;;;;;22.97;8.53;;;;;4.30;99873.00;;;;10481983;28;20257;-82
2021/11/26 04:56:52;;;;;;;19.63;7.87;;;;;4.30;99879.00;;;;10467547;28;20201;-82
2021/11/26 05:01:54;;;;;;;20.00;8.17;;;;;4.30;99863.00;;;;10472315;28;20265;-82
2021/11/26 05:06:56;;;;;;;23.27;7.57;;;;;4.20;99853.00;;;;10455612;28;20228;-82
2021/11/26 05:11:58;;;;;;;19.97;8.00;;;;;4.10;99857.00;;;;10490874;28;20254;-82
2021/11/26 05:17:00;;;;;;;20.97;8.03;;;;;4.00;99856.00;;;;10458465;28;20254;-82
2021/11/26 05:22:02;;;;;;;21.93;8.33;;;;;4.00;99850.00;;;;10485974;28;20213;-81
2021/11/26 05:27:04;;;;;;;19.83;7.63;;;;;4.00;99843.00;;;;10480513;28;20201;-82
2021/11/26 05:32:06;;;;;;;17.73;8.60;;;;;4.00;99834.00;;;;10450119;28;20217;-82
2021/11/26 05:37:09;;;;;;;28.77;8.60;;;;;4.00;99833.00;;;;10491316;28;20212;-82
2021/11/26 05:42:12;;;;;;;20.93;6.87;;;;;3.90;99801.00;;;;10491366;28;20315;-82
2021/11/26 05:47:14;;;;;;;15.57;7.37;;;;;3.90;99799.00;;;;10456282;28;20337;-81
2021/11/26 05:52:16;;;;;;;22.17;8.47;;;;;3.80;99790.00;;;;10465257;28;20250;-81
2021/11/26 05:57:18;;;;;;;27.00;9.13;;;;;3.70;99786.00;;;;10498691;28;20216;-82
2021/11/26 06:02:20;;;;;;;21.93;6.47;;;;;3.70;99783.00;;;;10499839;28;20298;-81
2021/11/26 06:07:22;;;;;;;18.10;7.50;;;;;3.70;99767.00;;;;10493018;28;20273;-81
2021/11/26 06:12:24;;;;;;;21.43;7.80;;;;;3.70;99763.00;;;;10499434;28;20262;-82
2021/11/26 06:17:26;;;;;;;15.43;7.00;;;;;3.70;99750.00;;;;10497723;28;20197;-81
2021/11/26 06:22:28;;;;;;;17.53;7.20;;;;;3.70;99734.00;;;;10461486;28;20755;-81
2021/11/26 06:27:30;;;;;;;19.17;7.63;;;;;3.60;99716.00;;;;10486622;28;20204;-81
2021/11/26 06:32:32;;;;;;;26.17;7.97;;;;;3.60;99705.00;;;;10492051;28;20246;-81
2021/11/26 06:37:35;;;;;;;21.27;8.73;;;;;3.60;99694.00;;;;10475088;28;20940;-81
2021/11/26 06:42:37;;;;;;;23.63;8.17;;;;;3.50;99687.00;;;;10474650;28;20215;-81
2021/11/26 06:47:39;;;;;;;22.37;7.23;;;;;3.50;99684.00;;;;10453691;28;20201;-81
2021/11/26 06:52:41;;;;;;;19.07;6.73;;;;;3.50;99684.00;;;;10516648;28;20233;-81
2021/11/26 06:57:43;;;;;;;19.93;5.97;;;;;3.40;99668.00;;;;10470639;28;20201;-81
2021/11/26 07:02:45;;;;;;;19.13;7.73;;;;;3.40;99671.00;;;;10489909;28;20222;-81
2021/11/26 07:07:48;;;;;;;25.33;6.67;;;;;3.40;99668.00;;;;10470185;28;20660;-81
2021/11/26 07:12:50;;;;;;;20.90;6.00;;;;;3.40;99672.00;;;;10507143;28;20230;-81
2021/11/26 07:17:51;;;;;;;22.13;5.73;;;;;3.30;99653.00;;;;10468208;28;20197;-81
2021/11/26 07:22:53;;;;;;;16.90;5.77;;;;;3.30;99662.00;;;;10498506;28;20212;-81
2021/11/26 07:27:55;;;;;;;13.43;5.10;;;;;3.30;99649.00;;;;10489888;28;20193;-81
2021/11/26 07:32:57;;;;;;;18.90;5.43;;;;;3.30;99647.00;;;;10501926;28;20225;-81
2021/11/26 07:37:59;;;;;;;18.90;6.17;;;;;3.40;99639.00;;;;10489579;28;20201;-81
2021/11/26 07:43:01;;;;;;;17.17;4.83;;;;;3.40;99644.00;;;;10506105;28;20221;-81
2021/11/26 07:48:04;;;;;;;21.80;4.83;;;;;3.50;99631.00;;;;10454060;28;20197;-81
2021/11/26 07:53:05;;;;;;;20.50;5.70;;;;;3.50;99628.00;;;;10474006;28;20239;-81
2021/11/26 07:58:08;;;;;;;20.70;5.60;;;;;3.60;99613.00;;;;10449706;28;20202;-81
2021/11/26 08:03:12;;;;;;;16.00;5.20;;;;;3.70;99599.00;;;;10489296;28;20216;-81
2021/11/26 08:08:35;;;;;;;18.20;5.87;;;;;3.70;99585.00;;;;10477854;28;20284;-81
2021/11/26 08:13:37;;;;;;;18.13;4.53;;;;;3.80;99563.00;;;;10487279;28;20205;-80
2021/11/26 08:18:39;;;;;;;21.77;5.90;;;;;3.90;99553.00;;;;10471808;28;20200;-81
2021/11/26 08:23:41;;;;;;;15.90;4.63;;;;;4.00;99556.00;;;;10488779;28;20227;-81
2021/11/26 08:28:43;;;;;;;15.57;4.57;;;;;4.10;99532.00;;;;10469943;28;20239;-81
2021/11/26 08:33:45;;;;;;;17.43;5.10;;;;;4.10;99527.00;;;;10477379;28;20221;-81
2021/11/26 08:38:47;;;;;;;12.73;4.90;;;;;4.20;99518.00;;;;10471612;28;20200;-81
2021/11/26 08:43:49;;;;;;;13.60;4.40;;;;;4.10;99497.00;;;;10504707;28;20265;-81
2021/11/26 08:48:51;;;;;;;15.40;4.80;;;;;4.10;99488.00;;;;10473901;28;20208;-81
2021/11/26 08:53:53;;;;;;;12.77;4.50;;;;;4.30;99482.00;;;;10482769;28;20197;-81
2021/11/26 08:58:56;;;;;;;15.60;4.07;;;;;4.60;99478.00;;;;10481818;28;20660;-81
2021/11/26 09:04:01;;;;;;;19.13;4.37;;;;;4.90;99460.00;;;;10463142;28;20228;-82
2021/11/26 09:09:04;;;;;;;8.97;3.77;;;;;5.00;99443.00;;;;10511603;28;20196;-82
2021/11/26 09:14:07;;;;;;;8.43;3.70;;;;;5.20;99442.00;;;;10474182;28;20224;-82
2021/11/26 09:19:10;;;;;;;12.53;3.80;;;;;5.30;99426.00;;;;10483344;28;20288;-82
2021/11/26 09:24:12;;;;;;;11.00;4.33;;;;;5.30;99423.00;;;;10469265;28;20220;-82
2021/11/26 09:29:14;;;;;;;11.23;4.20;;;;;5.10;99414.00;;;;10461646;28;20624;-82
2021/11/26 09:34:19;;;;;;;9.53;4.27;;;;;5.00;99383.00;;;;10476246;27;20208;-81
2021/11/26 09:39:21;;;;;;;12.47;4.67;;;;;5.30;99382.00;;;;10474518;28;20200;-82
2021/11/26 09:44:23;;;;;;;14.77;4.40;;;;;5.50;99369.00;;;;10466785;28;20932;-82
2021/11/26 09:49:25;;;;;;;11.47;4.63;;;;;5.40;99350.00;;;;10480014;28;20203;-82
2021/11/26 09:54:36;;;;;;;13.30;4.90;;;;;5.30;99348.00;;;;10472064;28;20201;-82
2021/11/26 09:59:39;;;;;;;15.03;4.90;;;;;5.20;99329.00;;;;10464875;28;20241;-82
2021/11/26 10:04:43;;;;;;;14.20;3.80;;;;;5.20;99325.00;;;;10459537;28;20656;-82
2021/11/26 10:09:44;;;;;;;13.53;4.17;;;;;5.10;99309.00;;;;10464507;28;20201;-82
2021/11/26 10:14:49;;;;;;;10.57;3.63;;;;;5.00;99288.00;;;;10456128;28;20197;-84
2021/11/26 10:19:59;;;;;;;13.77;4.40;;;;;5.00;99273.00;;;;10480198;28;20193;-84
2021/11/26 10:25:16;;;;;;;16.93;4.60;;;;;4.90;99248.00;;;;10453228;28;20215;-84
2021/11/26 10:30:36;;;;;;;11.67;3.43;;;;;5.00;99226.00;;;;10466602;28;20284;-83
2021/11/26 10:35:46;;;;;;;13.23;3.93;;;;;5.20;99209.00;;;;10516390;28;20205;-83
2021/11/26 10:40:52;;;;;;;11.40;4.63;;;;;5.30;99189.00;;;;10474042;28;20201;-84
2021/11/26 10:51:29;;;;;;;10.37;4.80;;;;;5.20;99154.00;;;;10503866;28;20258;-84
2021/11/26 11:01:50;;;;;;;14.23;6.53;;;;;5.00;99103.00;;;;10488543;28;20245;-84
2021/11/26 11:07:11;;;;;;;11.93;5.83;;;;;4.90;99079.00;;;;10500386;28;20201;-84
2021/11/26 11:12:14;;;;;;;14.73;4.93;;;;;5.00;99063.00;;;;10509279;28;20204;-84
2021/11/26 11:17:17;;;;;;;13.30;6.30;;;;;5.10;99039.00;;;;10507125;28;20211;-83
2021/11/26 11:22:19;;;;;;;12.10;6.10;;;;;5.10;99008.00;;;;10509681;28;20212;-84
2021/11/26 11:27:22;;;;;;;9.23;4.70;;;;;5.20;98996.00;;;;10476665;28;20212;-83
2021/11/26 11:32:26;;;;;;;15.30;5.30;;;;;5.10;98971.00;;;;10486132;28;20224;-83
2021/11/26 11:37:28;;;;;;;13.63;5.13;;;;;5.00;98962.00;;;;10484858;28;20200;-84
2021/11/26 11:42:33;;;;;;;10.40;4.47;;;;;5.00;98940.00;;;;10490041;28;20248;-83
2021/11/26 11:47:42;;;;;;;11.00;4.87;;;;;5.10;98932.00;;;;10463694;28;20212;-83
2021/11/26 11:52:59;;;;;;;8.00;4.10;;;;;5.20;98905.00;;;;10480010;28;20238;-83
2021/11/26 11:58:24;;;;;;;9.73;4.77;;;;;5.20;98894.00;;;;10506879;28;20208;-83
2021/11/26 12:03:29;;;;;;;7.53;3.50;;;;;5.00;98868.00;;;;10506322;28;20221;-82
2021/11/26 12:08:44;;;;;;;7.87;3.83;;;;;4.90;98846.00;;;;10480706;28;20635;-83
2021/11/26 12:14:01;;;;;;;5.87;3.87;;;;;4.80;98827.00;;;;10478634;28;20192;-83
2021/11/26 12:19:03;;;;;;;4.00;2.80;;;;;4.80;98822.00;;;;10473328;28;20212;-83
2021/11/26 12:24:10;;;;;;;6.73;4.00;;;;;4.80;98812.00;;;;10489032;28;20216;-83
2021/11/26 12:29:12;;;;;;;7.37;3.40;;;;;4.70;98784.00;;;;10492031;28;20234;-82
2021/11/26 12:34:18;;;;;;;7.73;3.93;;;;;4.80;98755.00;;;;10488998;28;20224;-83
2021/11/26 12:39:33;;;;;;;5.03;3.73;;;;;5.00;98740.00;;;;10489617;28;20204;-83
2021/11/26 12:44:35;;;;;;;4.73;3.00;;;;;5.00;98720.00;;;;10465053;28;20229;-82
2021/11/26 12:54:49;;;;;;;8.30;3.93;;;;;4.80;98686.00;;;;10488591;28;20209;-83
2021/11/26 12:59:55;;;;;;;3.37;2.40;;;;;4.80;98671.00;;;;10512449;28;20193;-82
2021/11/26 13:05:00;;;;;;;5.97;3.33;;;;;4.70;98658.00;;;;10505527;28;20683;-83
2021/11/26 13:10:09;;;;;;;12.60;3.93;;;;;4.80;98641.00;;;;10495563;28;20251;-83
2021/11/26 13:15:35;;;;;;;3.97;3.43;;;;;4.70;98613.00;;;;10482243;28;20205;-83
2021/11/26 13:20:41;;;;;;;6.47;2.60;;;;;4.70;98581.00;;;;10471645;28;20245;-83
2021/11/26 13:25:49;;;;;;;6.90;3.60;;;;;4.60;98571.00;;;;10513409;28;20662;-83
2021/11/26 13:30:54;;;;;;;6.43;3.90;;;;;4.70;98564.00;;;;10471512;28;20227;-83
2021/11/26 13:36:06;;;;;;;6.27;3.97;;;;;4.60;98535.00;;;;10471346;28;20228;-82
2021/11/26 13:41:14;;;;;;;4.33;3.60;;;;;4.80;98513.00;;;;10475245;28;20599;-82
2021/11/26 13:46:19;;;;;;;5.40;4.13;;;;;5.20;98511.00;;;;10511966;28;20266;-83
2021/11/26 13:51:26;;;;;;;5.17;3.90;;;;;5.40;98514.00;;;;10488915;28;20904;-82
2021/11/26 13:56:31;;;;;;;5.03;3.60;;;;;5.10;98493.00;;;;10491352;28;20205;-83
2021/11/26 14:01:36;;;;;;;4.97;3.70;;;;;4.90;98502.00;;;;10472000;28;20205;-82
2021/11/26 14:06:40;;;;;;;6.97;4.03;;;;;4.90;98481.00;;;;10497694;28;20224;-84
2021/11/26 14:11:46;;;;;;;7.13;3.57;;;;;4.80;98478.00;;;;10492877;28;20188;-82
2021/11/26 14:16:57;;;;;;;7.93;4.50;;;;;4.70;98448.00;;;;10494499;28;20212;-83
2021/11/26 14:22:01;;;;;;;4.63;4.23;;;;;4.60;98448.00;;;;10477464;28;20266;-82
2021/11/26 14:27:04;;;;;;;6.67;4.17;;;;;4.60;98426.00;;;;10509372;28;20255;-82
2021/11/26 14:32:13;;;;;;;10.00;4.50;;;;;4.60;98415.00;;;;10492380;28;20691;-83
2021/11/26 14:37:17;;;;;;;4.10;3.00;;;;;4.60;98401.00;;;;10506920;28;20656;-82
2021/11/26 14:42:29;;;;;;;7.13;4.20;;;;;4.50;98397.00;;;;10510468;28;20197;-82
2021/11/26 14:47:36;;;;;;;5.73;4.10;;;;;4.40;98390.00;;;;10492665;28;20292;-82
2021/11/26 14:52:38;;;;;;;7.53;4.50;;;;;4.40;98387.00;;;;10496274;28;20716;-85
2021/11/26 14:57:40;;;;;;;6.07;4.17;;;;;4.40;98391.00;;;;10506001;28;20200;-84
2021/11/26 15:02:42;;;;;;;3.83;3.40;;;;;4.30;98384.00;;;;10479206;28;20266;-84
2021/11/26 15:07:44;;;;;;;5.87;3.47;;;;;4.20;98374.00;;;;10461844;28;20212;-86
2021/11/26 15:12:47;;;;;;;3.97;2.67;;;;;4.30;98364.00;;;;10469892;28;20212;-85
2021/11/26 15:17:49;;;;;;;3.70;3.40;;;;;4.30;98359.00;;;;10509150;28;20207;-85
2021/11/26 15:22:51;;;;;;;2.57;1.93;;;;;4.30;98341.00;;;;10476668;28;20218;-84
2021/11/26 15:27:54;;;;;;;4.13;3.80;;;;;4.30;98328.00;;;;10489956;28;20209;-84
2021/11/26 15:32:55;;;;;;;4.97;3.37;;;;;4.30;98322.00;;;;10475795;28;20227;-84
2021/11/26 15:37:58;;;;;;;5.87;3.47;;;;;4.30;98308.00;;;;10472785;28;20201;-83
2021/11/26 15:43:01;;;;;;;5.20;3.90;;;;;4.30;98302.00;;;;10488378;27;20223;-83
2021/11/26 15:48:03;;;;;;;5.03;3.53;;;;;4.30;98308.00;;;;10464083;28;20573;-84
2021/11/26 15:53:06;;;;;;;4.00;3.40;;;;;4.40;98305.00;;;;10487787;28;20205;-83
2021/11/26 15:58:08;;;;;;;5.33;4.10;;;;;4.40;98281.00;;;;10479465;27;21226;-84
2021/11/26 16:03:10;;;;;;;6.27;3.40;;;;;4.40;98274.00;;;;10476250;28;20216;-84
2021/11/26 16:08:13;;;;;;;7.83;4.67;;;;;4.40;98268.00;;;;10468002;28;20200;-84
2021/11/26 16:13:34;;;;;;;6.30;3.70;;;;;4.40;98255.00;;;;10480173;28;20196;-85
2021/11/26 16:18:36;;;;;;;8.90;5.73;;;;;4.40;98252.00;;;;10470153;28;20683;-85
2021/11/26 16:23:39;;;;;;;6.27;4.13;;;;;4.30;98245.00;;;;10501399;28;20642;-84
2021/11/26 16:28:40;;;;;;;4.53;3.67;;;;;4.30;98235.00;;;;10482654;28;20204;-84
2021/11/26 16:33:53;;;;;;;10.73;4.43;;;;;4.30;98219.00;;;;10476553;28;20220;-84
2021/11/26 16:38:56;;;;;;;7.10;4.47;;;;;4.30;98206.00;;;;10499408;28;20197;-83
2021/11/26 16:43:58;;;;;;;6.47;4.17;;;;;4.30;98204.00;;;;10483609;28;20224;-83
2021/11/26 16:49:11;;;;;;;5.47;4.00;;;;;4.30;98203.00;;;;10490893;28;20852;-83
2021/11/26 16:54:13;;;;;;;8.20;4.53;;;;;4.30;98201.00;;;;10490872;28;21024;-83
2021/11/26 16:59:15;;;;;;;8.90;4.87;;;;;4.30;98189.00;;;;10488643;28;20197;-82
2021/11/26 17:04:17;;;;;;;7.63;5.50;;;;;4.30;98184.00;;;;10482915;28;20235;-82
2021/11/26 17:09:19;;;;;;;6.63;4.87;;;;;4.40;98168.00;;;;10477305;28;20253;-82
2021/11/26 17:14:21;;;;;;;6.80;5.40;;;;;4.40;98174.00;;;;10464372;28;20239;-81
2021/11/26 17:19:24;;;;;;;6.47;5.13;;;;;4.40;98177.00;;;;10474744;28;20212;-82
2021/11/26 17:24:32;;;;;;;6.90;6.13;;;;;4.50;98176.00;;;;10463624;28;20219;-83
2021/11/26 17:29:34;;;;;;;8.40;7.10;;;;;4.50;98175.00;;;;10484238;28;20192;-83
2021/11/26 17:34:37;;;;;;;10.20;6.10;;;;;4.40;98173.00;;;;10485148;28;20225;-84
2021/11/26 17:39:41;;;;;;;6.20;5.60;;;;;4.40;98167.00;;;;10455158;28;20201;-85
2021/11/26 17:44:44;;;;;;;8.10;6.27;;;;;4.40;98149.00;;;;10455189;28;20228;-84
2021/11/26 17:49:46;;;;;;;8.00;6.17;;;;;4.50;98131.00;;;;10465941;28;20197;-84
2021/11/26 17:54:48;;;;;;;6.87;6.03;;;;;4.50;98121.00;;;;10504111;28;20207;-84
2021/11/26 17:59:50;;;;;;;7.33;5.33;;;;;4.50;98116.00;;;;10507610;28;20213;-84
2021/11/26 18:04:56;;;;;;;8.30;5.23;;;;;4.60;98108.00;;;;10481443;28;20236;-84
2021/11/26 18:10:01;;;;;;;9.57;6.27;;;;;4.60;98108.00;;;;10491023;28;20204;-83
2021/11/26 18:15:06;;;;;;;7.07;5.80;;;;;4.70;98120.00;;;;10507461;28;20283;-84
2021/11/26 18:20:09;;;;;;;9.00;6.20;;;;;4.70;98097.00;;;;10514718;28;20636;-84
2021/11/26 18:25:12;;;;;;;7.77;6.57;;;;;4.70;98100.00;;;;10488767;28;20580;-84
2021/11/26 18:30:15;;;;;;;10.67;6.90;;;;;4.70;98093.00;;;;10493349;28;21076;-84
2021/11/26 18:35:17;;;;;;;10.67;7.13;;;;;4.70;98087.00;;;;10511455;28;20659;-84
2021/11/26 18:40:24;;;;;;;8.80;7.40;;;;;4.70;98077.00;;;;10493704;28;20201;-84
2021/11/26 18:45:26;;;;;;;10.63;8.00;;;;;4.70;98067.00;;;;10485549;28;20243;-84
2021/11/26 18:50:29;;;;;;;9.70;8.67;;;;;4.80;98059.00;;;;10459623;28;20715;-84
2021/11/26 18:55:31;;;;;;;11.47;8.33;;;;;4.80;98057.00;;;;10486789;28;20201;-85
2021/11/26 19:00:36;;;;;;;12.03;9.77;;;;;4.90;98052.00;;;;10501048;28;20204;-84
2021/11/26 19:05:39;;;;;;;13.43;10.57;;;;;5.00;98045.00;;;;10467426;28;20328;-84
2021/11/26 19:10:42;;;;;;;13.53;10.73;;;;;5.00;98036.00;;;;10481696;28;20690;-84
2021/11/26 19:15:46;;;;;;;15.50;11.53;;;;;5.10;98039.00;;;;10487129;28;20208;-84
2021/11/26 19:20:48;;;;;;;15.10;11.13;;;;;5.20;98030.00;;;;10500952;28;20667;-84
2021/11/26 19:25:51;;;;;;;20.47;12.43;;;;;5.30;98027.00;;;;10480790;28;20221;-84
2021/11/26 19:30:53;;;;;;;15.93;11.03;;;;;5.30;98023.00;;;;10505540;28;20522;-85
2021/11/26 19:35:56;;;;;;;17.53;10.13;;;;;5.30;98021.00;;;;10487811;28;20206;-84
2021/11/26 19:40:59;;;;;;;12.83;10.30;;;;;5.30;98014.00;;;;10503571;28;20708;-84
2021/11/26 19:46:01;;;;;;;12.13;8.27;;;;;5.30;98008.00;;;;10469074;28;20679;-84
2021/11/26 19:51:05;;;;;;;12.80;8.97;;;;;5.30;98009.00;;;;10473755;28;20213;-85
2021/11/26 19:56:08;;;;;;;9.27;7.47;;;;;5.30;98009.00;;;;10485267;28;20186;-84
2021/11/26 20:01:10;;;;;;;9.53;7.17;;;;;5.20;98016.00;;;;10476301;28;20215;-85
2021/11/26 20:06:14;;;;;;;11.67;7.60;;;;;5.20;98013.00;;;;10457276;28;20252;-84
2021/11/26 20:11:16;;;;;;;12.07;6.93;;;;;5.20;98009.00;;;;10454469;28;20225;-84
2021/11/26 20:16:18;;;;;;;7.67;6.87;;;;;5.10;97996.00;;;;10471453;28;20184;-86
2021/11/26 20:21:21;;;;;;;11.83;8.50;;;;;5.20;97987.00;;;;10471391;28;20197;-85
2021/11/26 20:26:23;;;;;;;14.07;9.70;;;;;5.20;97995.00;;;;10479407;28;20217;-86
2021/11/26 20:31:25;;;;;;;12.30;9.67;;;;;5.20;97997.00;;;;10479385;28;20220;-85
2021/11/26 20:36:27;;;;;;;10.57;7.47;;;;;5.20;97991.00;;;;10488393;28;20283;-86
2021/11/26 20:41:29;;;;;;;10.47;6.57;;;;;5.10;97998.00;;;;10451910;28;20201;-85
2021/11/26 20:46:31;;;;;;;4.40;4.00;;;;;5.00;97997.00;;;;10459626;28;20216;-85
2021/11/26 20:51:35;;;;;;;4.03;3.30;;;;;4.90;97993.00;;;;10485395;28;20564;-85
2021/11/26 20:56:37;;;;;;;3.30;3.00;;;;;4.80;98007.00;;;;10468792;28;20212;-86
2021/11/26 21:01:40;;;;;;;4.27;2.53;;;;;4.70;97998.00;;;;10467550;28;20200;-86
2021/11/26 21:06:43;;;;;;;2.10;1.80;;;;;4.60;97996.00;;;;10494040;28;20335;-85
2021/11/26 21:11:49;;;;;;;3.77;2.10;;;;;4.50;97986.00;;;;10466140;28;20246;-85
2021/11/26 21:16:51;;;;;;;5.37;2.77;;;;;4.50;97990.00;;;;10471197;28;20205;-85
2021/11/26 21:21:54;;;;;;;6.00;2.80;;;;;4.50;97983.00;;;;10474849;28;20296;-85
2021/11/26 21:26:57;;;;;;;4.30;2.97;;;;;4.50;97974.00;;;;10465428;28;20267;-84
2021/11/26 21:32:01;;;;;;;4.73;2.87;;;;;4.50;97971.00;;;;10497121;28;20299;-84
2021/11/26 21:37:04;;;;;;;4.37;2.83;;;;;4.50;97983.00;;;;10501029;28;20718;-84
2021/11/26 21:42:06;;;;;;;5.80;3.30;;;;;4.50;97973.00;;;;10494352;28;20201;-84
2021/11/26 21:47:08;;;;;;;4.97;2.97;;;;;4.50;97968.00;;;;10477589;28;20227;-84
2021/11/26 21:52:10;;;;;;;3.93;2.30;;;;;4.40;97973.00;;;;10506034;28;20197;-85
2021/11/26 21:57:13;;;;;;;2.37;2.10;;;;;4.30;97968.00;;;;10484353;28;20239;-85
2021/11/26 22:02:15;;;;;;;3.80;2.47;;;;;4.20;97971.00;;;;10486337;28;20196;-85
2021/11/26 22:07:17;;;;;;;4.73;3.40;;;;;4.10;97983.00;;;;10469555;28;20278;-83
2021/11/26 22:12:20;;;;;;;3.57;2.77;;;;;4.10;97988.00;;;;10505444;28;20316;-84
2021/11/26 22:17:22;;;;;;;3.73;2.70;;;;;3.90;97994.00;;;;10461416;28;20262;-83
2021/11/26 22:22:24;;;;;;;1.70;1.60;;;;;3.60;97989.00;;;;10475529;28;20201;-83
2021/11/26 22:27:26;;;;;;;1.33;1.20;;;;;3.20;97997.00;;;;10479834;28;20217;-83
2021/11/26 22:32:28;;;;;;;2.10;1.90;;;;;3.00;98004.00;;;;10491179;28;20729;-83
2021/11/26 22:37:31;;;;;;;1.93;1.60;;;;;3.00;97998.00;;;;10505273;28;20204;-84
2021/11/26 22:42:33;;;;;;;1.47;1.10;;;;;2.90;97993.00;;;;10522059;28;20230;-84
2021/11/26 22:47:36;;;;;;;1.73;1.37;;;;;2.90;98007.00;;;;10507428;27;20224;-84
2021/11/26 22:52:38;;;;;;;2.30;1.90;;;;;2.90;98011.00;;;;10488714;28;20292;-84
2021/11/26 22:57:42;;;;;;;1.30;1.20;;;;;2.80;98012.00;;;;10489895;28;20215;-84
2021/11/26 23:02:44;;;;;;;0.97;0.80;;;;;2.70;98011.00;;;;10528074;28;20207;-84
2021/11/26 23:07:46;;;;;;;0.90;0.90;;;;;2.60;98000.00;;;;10498094;28;20909;-85
2021/11/26 23:12:49;;;;;;;1.17;0.97;;;;;2.50;97994.00;;;;10488352;28;20231;-83
2021/11/26 23:17:55;;;;;;;1.30;0.90;;;;;2.40;97995.00;;;;10494611;27;20258;-84
2021/11/26 23:23:02;;;;;;;1.30;1.20;;;;;2.40;98003.00;;;;10487652;28;20287;-84
2021/11/26 23:28:08;;;;;;;4.60;1.90;;;;;2.50;98001.00;;;;10514656;28;20286;-84
2021/11/26 23:33:12;;;;;;;3.37;2.20;;;;;2.60;98015.00;;;;10498081;27;20270;-84
2021/11/26 23:38:14;;;;;;;3.17;2.30;;;;;2.60;98014.00;;;;10470354;28;20299;-84
2021/11/26 23:43:16;;;;;;;5.33;2.77;;;;;2.70;98011.00;;;;10473819;28;20201;-83
2021/11/26 23:48:18;;;;;;;3.27;2.83;;;;;2.70;98021.00;;;;10470482;28;20213;-83
2021/11/26 23:53:20;;;;;;;4.93;3.13;;;;;2.70;98009.00;;;;10496211;28;20190;-84
2021/11/26 23:58:25;;;;;;;5.83;3.10;;;;;2.70;98009.00;;;;10466837;28;20208;-83
